sensor_id;sensor_type;location;lat;lon;timestamp;P1;durP1;ratioP1;P2;durP2;ratioP2
22922;SDS011;11627;51.322;22.816;2023-03-23T00:01:06;23.27;;;12.30;;
22922;SDS011;11627;51.322;22.816;2023-03-23T00:03:44;26.35;;;14.00;;
22922;SDS011;11627;51.322;22.816;2023-03-23T00:06:11;25.65;;;13.85;;
22922;SDS011;11627;51.322;22.816;2023-03-23T00:08:42;22.83;;;12.98;;
22922;SDS011;11627;51.322;22.816;2023-03-23T00:11:16;28.38;;;13.55;;
22922;SDS011;11627;51.322;22.816;2023-03-23T00:13:44;26.75;;;14.27;;
22922;SDS011;11627;51.322;22.816;2023-03-23T00:16:11;27.77;;;14.52;;
22922;SDS011;11627;51.322;22.816;2023-03-23T00:18:45;26.05;;;14.32;;
22922;SDS011;11627;51.322;22.816;2023-03-23T00:21:13;27.60;;;14.45;;
22922;SDS011;11627;51.322;22.816;2023-03-23T00:23:39;26.10;;;14.63;;
22922;SDS011;11627;51.322;22.816;2023-03-23T00:26:05;28.85;;;15.48;;
22922;SDS011;11627;51.322;22.816;2023-03-23T00:28:31;25.08;;;14.48;;
22922;SDS011;11627;51.322;22.816;2023-03-23T00:30:58;25.13;;;14.23;;
22922;SDS011;11627;51.322;22.816;2023-03-23T00:33:26;26.42;;;13.30;;
22922;SDS011;11627;51.322;22.816;2023-03-23T00:35:53;23.70;;;13.82;;
22922;SDS011;11627;51.322;22.816;2023-03-23T00:38:20;27.35;;;14.55;;
22922;SDS011;11627;51.322;22.816;2023-03-23T00:40:48;27.02;;;15.07;;
22922;SDS011;11627;51.322;22.816;2023-03-23T00:43:15;28.00;;;14.75;;
22922;SDS011;11627;51.322;22.816;2023-03-23T00:45:43;27.05;;;14.95;;
22922;SDS011;11627;51.322;22.816;2023-03-23T00:48:10;27.05;;;15.10;;
22922;SDS011;11627;51.322;22.816;2023-03-23T00:50:41;28.70;;;15.65;;
22922;SDS011;11627;51.322;22.816;2023-03-23T00:53:07;26.92;;;14.98;;
22922;SDS011;11627;51.322;22.816;2023-03-23T00:55:33;25.45;;;14.88;;
22922;SDS011;11627;51.322;22.816;2023-03-23T00:57:58;28.67;;;15.70;;
22922;SDS011;11627;51.322;22.816;2023-03-23T01:00:25;27.15;;;15.48;;
22922;SDS011;11627;51.322;22.816;2023-03-23T01:02:53;30.10;;;15.30;;
22922;SDS011;11627;51.322;22.816;2023-03-23T01:05:19;24.52;;;14.20;;
22922;SDS011;11627;51.322;22.816;2023-03-23T01:07:45;29.00;;;15.70;;
22922;SDS011;11627;51.322;22.816;2023-03-23T01:10:12;28.15;;;15.95;;
22922;SDS011;11627;51.322;22.816;2023-03-23T01:12:41;26.08;;;15.20;;
22922;SDS011;11627;51.322;22.816;2023-03-23T01:15:08;28.35;;;15.45;;
22922;SDS011;11627;51.322;22.816;2023-03-23T01:17:37;27.30;;;14.70;;
22922;SDS011;11627;51.322;22.816;2023-03-23T01:20:03;31.30;;;15.90;;
22922;SDS011;11627;51.322;22.816;2023-03-23T01:22:31;27.25;;;15.98;;
22922;SDS011;11627;51.322;22.816;2023-03-23T01:24:57;28.58;;;15.68;;
22922;SDS011;11627;51.322;22.816;2023-03-23T01:27:23;30.35;;;15.70;;
22922;SDS011;11627;51.322;22.816;2023-03-23T01:29:49;29.90;;;15.80;;
22922;SDS011;11627;51.322;22.816;2023-03-23T01:32:15;28.48;;;16.15;;
22922;SDS011;11627;51.322;22.816;2023-03-23T01:34:42;29.45;;;15.70;;
22922;SDS011;11627;51.322;22.816;2023-03-23T01:37:08;29.35;;;15.70;;
22922;SDS011;11627;51.322;22.816;2023-03-23T01:39:35;27.95;;;15.30;;
22922;SDS011;11627;51.322;22.816;2023-03-23T01:42:02;26.02;;;14.45;;
22922;SDS011;11627;51.322;22.816;2023-03-23T01:46:59;25.23;;;14.23;;
22922;SDS011;11627;51.322;22.816;2023-03-23T01:49:29;28.83;;;15.18;;
22922;SDS011;11627;51.322;22.816;2023-03-23T01:52:08;25.48;;;14.85;;
22922;SDS011;11627;51.322;22.816;2023-03-23T01:54:42;26.65;;;14.98;;
22922;SDS011;11627;51.322;22.816;2023-03-23T01:57:14;26.98;;;15.57;;
22922;SDS011;11627;51.322;22.816;2023-03-23T01:59:43;25.05;;;14.30;;
22922;SDS011;11627;51.322;22.816;2023-03-23T02:02:12;28.95;;;15.00;;
22922;SDS011;11627;51.322;22.816;2023-03-23T02:04:40;29.65;;;15.38;;
22922;SDS011;11627;51.322;22.816;2023-03-23T02:07:07;26.63;;;16.40;;
22922;SDS011;11627;51.322;22.816;2023-03-23T02:09:34;28.83;;;15.85;;
22922;SDS011;11627;51.322;22.816;2023-03-23T02:12:00;28.27;;;15.88;;
22922;SDS011;11627;51.322;22.816;2023-03-23T02:14:27;28.60;;;16.13;;
22922;SDS011;11627;51.322;22.816;2023-03-23T02:22:41;25.80;;;15.38;;
22922;SDS011;11627;51.322;22.816;2023-03-23T02:34:05;25.80;;;14.50;;
22922;SDS011;11627;51.322;22.816;2023-03-23T02:36:54;28.30;;;15.88;;
22922;SDS011;11627;51.322;22.816;2023-03-23T02:39:35;27.75;;;15.30;;
22922;SDS011;11627;51.322;22.816;2023-03-23T02:42:11;28.05;;;14.73;;
22922;SDS011;11627;51.322;22.816;2023-03-23T02:44:44;26.20;;;15.13;;
22922;SDS011;11627;51.322;22.816;2023-03-23T02:47:14;27.25;;;14.48;;
22922;SDS011;11627;51.322;22.816;2023-03-23T02:49:45;26.20;;;14.30;;
22922;SDS011;11627;51.322;22.816;2023-03-23T02:52:14;23.65;;;13.80;;
22922;SDS011;11627;51.322;22.816;2023-03-23T02:54:46;24.08;;;13.77;;
22922;SDS011;11627;51.322;22.816;2023-03-23T02:57:14;23.77;;;14.32;;
22922;SDS011;11627;51.322;22.816;2023-03-23T02:59:41;25.42;;;14.30;;
22922;SDS011;11627;51.322;22.816;2023-03-23T03:02:08;26.35;;;14.82;;
22922;SDS011;11627;51.322;22.816;2023-03-23T03:05:01;26.90;;;14.25;;
22922;SDS011;11627;51.322;22.816;2023-03-23T03:07:40;25.10;;;14.68;;
22922;SDS011;11627;51.322;22.816;2023-03-23T03:21:30;25.67;;;14.00;;
22922;SDS011;11627;51.322;22.816;2023-03-23T03:24:00;21.85;;;13.30;;
22922;SDS011;11627;51.322;22.816;2023-03-23T03:26:28;23.27;;;12.75;;
22922;SDS011;11627;51.322;22.816;2023-03-23T03:28:56;23.30;;;13.60;;
22922;SDS011;11627;51.322;22.816;2023-03-23T03:31:32;22.40;;;12.90;;
22922;SDS011;11627;51.322;22.816;2023-03-23T03:34:37;22.80;;;11.35;;
22922;SDS011;11627;51.322;22.816;2023-03-23T03:37:04;24.17;;;13.65;;
22922;SDS011;11627;51.322;22.816;2023-03-23T03:42:41;21.00;;;12.32;;
22922;SDS011;11627;51.322;22.816;2023-03-23T03:45:09;21.15;;;12.40;;
22922;SDS011;11627;51.322;22.816;2023-03-23T03:47:36;23.77;;;13.48;;
22922;SDS011;11627;51.322;22.816;2023-03-23T03:50:02;26.15;;;14.00;;
22922;SDS011;11627;51.322;22.816;2023-03-23T03:52:28;28.88;;;14.30;;
22922;SDS011;11627;51.322;22.816;2023-03-23T03:54:54;28.33;;;14.55;;
22922;SDS011;11627;51.322;22.816;2023-03-23T03:57:21;36.90;;;16.60;;
22922;SDS011;11627;51.322;22.816;2023-03-23T03:59:47;39.53;;;17.58;;
22922;SDS011;11627;51.322;22.816;2023-03-23T04:02:12;41.47;;;17.20;;
22922;SDS011;11627;51.322;22.816;2023-03-23T04:04:41;45.00;;;18.33;;
22922;SDS011;11627;51.322;22.816;2023-03-23T04:07:08;43.42;;;19.80;;
22922;SDS011;11627;51.322;22.816;2023-03-23T04:09:40;37.20;;;17.80;;
22922;SDS011;11627;51.322;22.816;2023-03-23T04:12:06;28.55;;;15.63;;
22922;SDS011;11627;51.322;22.816;2023-03-23T04:14:33;27.38;;;15.05;;
22922;SDS011;11627;51.322;22.816;2023-03-23T04:16:59;25.38;;;15.05;;
22922;SDS011;11627;51.322;22.816;2023-03-23T04:19:25;25.95;;;14.65;;
22922;SDS011;11627;51.322;22.816;2023-03-23T04:21:53;27.63;;;16.17;;
22922;SDS011;11627;51.322;22.816;2023-03-23T04:24:20;24.20;;;14.23;;
22922;SDS011;11627;51.322;22.816;2023-03-23T04:26:46;22.95;;;13.57;;
22922;SDS011;11627;51.322;22.816;2023-03-23T04:29:12;22.45;;;13.27;;
22922;SDS011;11627;51.322;22.816;2023-03-23T04:31:38;22.80;;;13.77;;
22922;SDS011;11627;51.322;22.816;2023-03-23T04:34:05;23.58;;;13.38;;
22922;SDS011;11627;51.322;22.816;2023-03-23T04:36:31;24.58;;;13.80;;
22922;SDS011;11627;51.322;22.816;2023-03-23T04:38:58;24.25;;;13.90;;
22922;SDS011;11627;51.322;22.816;2023-03-23T04:41:25;24.52;;;13.80;;
22922;SDS011;11627;51.322;22.816;2023-03-23T04:43:51;23.15;;;13.60;;
22922;SDS011;11627;51.322;22.816;2023-03-23T04:46:20;25.27;;;12.82;;
22922;SDS011;11627;51.322;22.816;2023-03-23T04:48:46;24.63;;;13.15;;
22922;SDS011;11627;51.322;22.816;2023-03-23T04:51:12;20.23;;;12.40;;
22922;SDS011;11627;51.322;22.816;2023-03-23T04:53:38;19.23;;;12.05;;
22922;SDS011;11627;51.322;22.816;2023-03-23T04:56:04;20.52;;;12.20;;
22922;SDS011;11627;51.322;22.816;2023-03-23T04:58:30;22.30;;;12.18;;
22922;SDS011;11627;51.322;22.816;2023-03-23T05:00:59;21.80;;;11.13;;
22922;SDS011;11627;51.322;22.816;2023-03-23T05:03:27;18.45;;;10.73;;
22922;SDS011;11627;51.322;22.816;2023-03-23T05:05:55;19.08;;;11.73;;
22922;SDS011;11627;51.322;22.816;2023-03-23T05:08:23;18.02;;;11.48;;
22922;SDS011;11627;51.322;22.816;2023-03-23T05:10:52;20.77;;;11.55;;
22922;SDS011;11627;51.322;22.816;2023-03-23T05:13:20;19.92;;;11.63;;
22922;SDS011;11627;51.322;22.816;2023-03-23T05:15:46;18.00;;;11.23;;
22922;SDS011;11627;51.322;22.816;2023-03-23T05:18:13;17.73;;;11.25;;
22922;SDS011;11627;51.322;22.816;2023-03-23T05:20:39;18.10;;;11.07;;
22922;SDS011;11627;51.322;22.816;2023-03-23T05:23:07;15.18;;;10.02;;
22922;SDS011;11627;51.322;22.816;2023-03-23T05:25:33;18.15;;;9.88;;
22922;SDS011;11627;51.322;22.816;2023-03-23T05:28:05;18.85;;;10.85;;
22922;SDS011;11627;51.322;22.816;2023-03-23T05:30:31;18.40;;;11.18;;
22922;SDS011;11627;51.322;22.816;2023-03-23T05:32:58;16.05;;;10.90;;
22922;SDS011;11627;51.322;22.816;2023-03-23T05:35:24;21.30;;;11.38;;
22922;SDS011;11627;51.322;22.816;2023-03-23T05:37:50;19.00;;;11.13;;
22922;SDS011;11627;51.322;22.816;2023-03-23T05:40:19;21.13;;;11.48;;
22922;SDS011;11627;51.322;22.816;2023-03-23T05:42:45;15.88;;;10.15;;
22922;SDS011;11627;51.322;22.816;2023-03-23T05:45:12;15.57;;;10.48;;
22922;SDS011;11627;51.322;22.816;2023-03-23T05:47:39;19.02;;;10.43;;
22922;SDS011;11627;51.322;22.816;2023-03-23T05:50:06;18.73;;;10.10;;
22922;SDS011;11627;51.322;22.816;2023-03-23T05:52:34;18.40;;;11.18;;
22922;SDS011;11627;51.322;22.816;2023-03-23T05:55:03;15.80;;;9.60;;
22922;SDS011;11627;51.322;22.816;2023-03-23T05:57:29;18.13;;;10.98;;
22922;SDS011;11627;51.322;22.816;2023-03-23T05:59:56;15.40;;;9.75;;
22922;SDS011;11627;51.322;22.816;2023-03-23T06:02:22;17.83;;;9.57;;
22922;SDS011;11627;51.322;22.816;2023-03-23T06:04:50;12.63;;;8.38;;
22922;SDS011;11627;51.322;22.816;2023-03-23T06:07:22;14.55;;;8.63;;
22922;SDS011;11627;51.322;22.816;2023-03-23T06:09:51;11.45;;;8.30;;
22922;SDS011;11627;51.322;22.816;2023-03-23T06:12:17;12.73;;;8.55;;
22922;SDS011;11627;51.322;22.816;2023-03-23T06:14:46;13.85;;;8.20;;
22922;SDS011;11627;51.322;22.816;2023-03-23T06:17:14;11.95;;;8.00;;
22922;SDS011;11627;51.322;22.816;2023-03-23T06:19:41;19.67;;;8.40;;
22922;SDS011;11627;51.322;22.816;2023-03-23T06:22:08;11.82;;;7.78;;
22922;SDS011;11627;51.322;22.816;2023-03-23T06:24:33;15.57;;;8.38;;
22922;SDS011;11627;51.322;22.816;2023-03-23T06:26:59;16.70;;;8.77;;
22922;SDS011;11627;51.322;22.816;2023-03-23T06:29:26;14.82;;;8.27;;
22922;SDS011;11627;51.322;22.816;2023-03-23T06:31:55;12.13;;;8.07;;
22922;SDS011;11627;51.322;22.816;2023-03-23T06:34:24;14.02;;;8.35;;
22922;SDS011;11627;51.322;22.816;2023-03-23T06:36:50;11.95;;;8.18;;
22922;SDS011;11627;51.322;22.816;2023-03-23T06:39:16;14.82;;;8.43;;
22922;SDS011;11627;51.322;22.816;2023-03-23T06:41:42;14.30;;;8.13;;
22922;SDS011;11627;51.322;22.816;2023-03-23T06:44:08;14.20;;;8.27;;
22922;SDS011;11627;51.322;22.816;2023-03-23T06:46:38;19.33;;;9.27;;
22922;SDS011;11627;51.322;22.816;2023-03-23T06:49:04;14.25;;;7.72;;
22922;SDS011;11627;51.322;22.816;2023-03-23T06:51:30;14.73;;;8.50;;
22922;SDS011;11627;51.322;22.816;2023-03-23T06:53:55;13.68;;;8.20;;
22922;SDS011;11627;51.322;22.816;2023-03-23T06:56:22;13.68;;;7.95;;
22922;SDS011;11627;51.322;22.816;2023-03-23T06:58:48;14.27;;;7.97;;
22922;SDS011;11627;51.322;22.816;2023-03-23T07:01:14;15.82;;;8.15;;
22922;SDS011;11627;51.322;22.816;2023-03-23T07:03:41;15.02;;;8.25;;
22922;SDS011;11627;51.322;22.816;2023-03-23T07:06:07;13.77;;;8.65;;
22922;SDS011;11627;51.322;22.816;2023-03-23T07:08:34;12.57;;;7.63;;
22922;SDS011;11627;51.322;22.816;2023-03-23T07:11:00;11.73;;;8.25;;
22922;SDS011;11627;51.322;22.816;2023-03-23T07:13:26;12.07;;;8.23;;
22922;SDS011;11627;51.322;22.816;2023-03-23T07:15:53;13.70;;;8.18;;
22922;SDS011;11627;51.322;22.816;2023-03-23T07:18:20;13.65;;;7.75;;
22922;SDS011;11627;51.322;22.816;2023-03-23T07:20:47;12.93;;;8.38;;
22922;SDS011;11627;51.322;22.816;2023-03-23T07:23:14;14.23;;;8.00;;
22922;SDS011;11627;51.322;22.816;2023-03-23T07:25:40;16.17;;;8.10;;
22922;SDS011;11627;51.322;22.816;2023-03-23T07:28:06;15.18;;;8.48;;
22922;SDS011;11627;51.322;22.816;2023-03-23T07:30:33;12.05;;;7.90;;
22922;SDS011;11627;51.322;22.816;2023-03-23T07:32:59;12.43;;;7.38;;
22922;SDS011;11627;51.322;22.816;2023-03-23T07:35:28;14.10;;;8.27;;
22922;SDS011;11627;51.322;22.816;2023-03-23T07:37:55;12.45;;;9.13;;
22922;SDS011;11627;51.322;22.816;2023-03-23T07:40:20;13.10;;;9.02;;
22922;SDS011;11627;51.322;22.816;2023-03-23T07:42:51;13.15;;;8.88;;
22922;SDS011;11627;51.322;22.816;2023-03-23T07:45:20;12.55;;;7.78;;
22922;SDS011;11627;51.322;22.816;2023-03-23T07:47:46;12.85;;;7.63;;
22922;SDS011;11627;51.322;22.816;2023-03-23T07:50:13;12.65;;;7.88;;
22922;SDS011;11627;51.322;22.816;2023-03-23T07:52:39;13.73;;;8.60;;
22922;SDS011;11627;51.322;22.816;2023-03-23T07:55:08;13.10;;;8.10;;
22922;SDS011;11627;51.322;22.816;2023-03-23T07:57:45;12.82;;;7.75;;
22922;SDS011;11627;51.322;22.816;2023-03-23T08:00:15;12.35;;;8.30;;
22922;SDS011;11627;51.322;22.816;2023-03-23T08:02:45;15.05;;;8.40;;
22922;SDS011;11627;51.322;22.816;2023-03-23T08:05:15;12.07;;;8.05;;
22922;SDS011;11627;51.322;22.816;2023-03-23T08:07:42;11.77;;;8.18;;
22922;SDS011;11627;51.322;22.816;2023-03-23T08:10:10;13.45;;;8.77;;
22922;SDS011;11627;51.322;22.816;2023-03-23T08:12:37;14.93;;;8.73;;
22922;SDS011;11627;51.322;22.816;2023-03-23T08:15:04;13.05;;;8.73;;
22922;SDS011;11627;51.322;22.816;2023-03-23T08:17:31;14.10;;;8.57;;
22922;SDS011;11627;51.322;22.816;2023-03-23T08:19:59;15.00;;;9.57;;
22922;SDS011;11627;51.322;22.816;2023-03-23T08:22:25;13.55;;;8.35;;
22922;SDS011;11627;51.322;22.816;2023-03-23T08:24:51;14.25;;;8.90;;
22922;SDS011;11627;51.322;22.816;2023-03-23T08:27:17;15.57;;;9.55;;
22922;SDS011;11627;51.322;22.816;2023-03-23T08:29:47;16.58;;;9.73;;
22922;SDS011;11627;51.322;22.816;2023-03-23T08:32:13;15.75;;;9.85;;
22922;SDS011;11627;51.322;22.816;2023-03-23T08:34:39;14.10;;;8.88;;
22922;SDS011;11627;51.322;22.816;2023-03-23T08:37:08;14.77;;;8.65;;
22922;SDS011;11627;51.322;22.816;2023-03-23T08:39:34;13.77;;;9.15;;
22922;SDS011;11627;51.322;22.816;2023-03-23T08:42:00;13.52;;;8.63;;
22922;SDS011;11627;51.322;22.816;2023-03-23T08:44:26;14.57;;;8.45;;
22922;SDS011;11627;51.322;22.816;2023-03-23T08:46:52;11.55;;;7.85;;
22922;SDS011;11627;51.322;22.816;2023-03-23T08:49:22;11.60;;;7.65;;
22922;SDS011;11627;51.322;22.816;2023-03-23T08:51:48;12.32;;;7.97;;
22922;SDS011;11627;51.322;22.816;2023-03-23T08:54:14;12.52;;;7.53;;
22922;SDS011;11627;51.322;22.816;2023-03-23T08:56:40;11.60;;;8.05;;
22922;SDS011;11627;51.322;22.816;2023-03-23T08:59:07;11.68;;;7.53;;
22922;SDS011;11627;51.322;22.816;2023-03-23T09:01:33;9.60;;;7.00;;
22922;SDS011;11627;51.322;22.816;2023-03-23T09:03:59;11.52;;;7.50;;
22922;SDS011;11627;51.322;22.816;2023-03-23T09:06:25;12.57;;;7.60;;
22922;SDS011;11627;51.322;22.816;2023-03-23T09:08:51;12.02;;;7.45;;
22922;SDS011;11627;51.322;22.816;2023-03-23T09:11:18;12.15;;;7.32;;
22922;SDS011;11627;51.322;22.816;2023-03-23T09:13:43;15.40;;;8.00;;
22922;SDS011;11627;51.322;22.816;2023-03-23T09:16:09;11.63;;;7.88;;
22922;SDS011;11627;51.322;22.816;2023-03-23T09:18:35;12.05;;;7.30;;
22922;SDS011;11627;51.322;22.816;2023-03-23T09:21:01;11.57;;;7.57;;
22922;SDS011;11627;51.322;22.816;2023-03-23T09:23:28;11.30;;;6.95;;
22922;SDS011;11627;51.322;22.816;2023-03-23T09:25:54;11.73;;;7.70;;
22922;SDS011;11627;51.322;22.816;2023-03-23T09:28:20;11.25;;;7.47;;
22922;SDS011;11627;51.322;22.816;2023-03-23T09:30:46;11.65;;;7.60;;
22922;SDS011;11627;51.322;22.816;2023-03-23T09:33:13;13.20;;;8.00;;
22922;SDS011;11627;51.322;22.816;2023-03-23T09:35:40;12.43;;;7.88;;
22922;SDS011;11627;51.322;22.816;2023-03-23T09:38:08;13.02;;;8.52;;
22922;SDS011;11627;51.322;22.816;2023-03-23T09:51:08;11.38;;;8.00;;
22922;SDS011;11627;51.322;22.816;2023-03-23T09:53:57;14.07;;;8.23;;
22922;SDS011;11627;51.322;22.816;2023-03-23T09:56:35;11.10;;;7.90;;
22922;SDS011;11627;51.322;22.816;2023-03-23T10:04:54;13.43;;;8.68;;
22922;SDS011;11627;51.322;22.816;2023-03-23T10:07:25;13.15;;;8.23;;
22922;SDS011;11627;51.322;22.816;2023-03-23T10:09:55;14.57;;;8.40;;
22922;SDS011;11627;51.322;22.816;2023-03-23T10:20:35;19.67;;;13.38;;
22922;SDS011;11627;51.322;22.816;2023-03-23T10:23:13;15.45;;;10.40;;
22922;SDS011;11627;51.322;22.816;2023-03-23T10:25:51;28.20;;;16.10;;
22922;SDS011;11627;51.322;22.816;2023-03-23T10:31:03;50.15;;;30.88;;
22922;SDS011;11627;51.322;22.816;2023-03-23T10:36:21;12.82;;;7.78;;
22922;SDS011;11627;51.322;22.816;2023-03-23T10:39:18;14.10;;;8.15;;
22922;SDS011;11627;51.322;22.816;2023-03-23T10:41:46;13.68;;;7.90;;
22922;SDS011;11627;51.322;22.816;2023-03-23T10:44:19;12.40;;;8.25;;
22922;SDS011;11627;51.322;22.816;2023-03-23T10:46:51;15.45;;;9.05;;
22922;SDS011;11627;51.322;22.816;2023-03-23T10:54:56;11.32;;;7.38;;
22922;SDS011;11627;51.322;22.816;2023-03-23T10:57:28;10.43;;;7.57;;
22922;SDS011;11627;51.322;22.816;2023-03-23T11:00:03;12.02;;;7.20;;
22922;SDS011;11627;51.322;22.816;2023-03-23T11:02:43;10.70;;;7.18;;
22922;SDS011;11627;51.322;22.816;2023-03-23T11:08:26;21.95;;;13.18;;
22922;SDS011;11627;51.322;22.816;2023-03-23T11:11:11;19.58;;;11.10;;
22922;SDS011;11627;51.322;22.816;2023-03-23T11:13:44;19.77;;;9.85;;
22922;SDS011;11627;51.322;22.816;2023-03-23T11:16:24;9.63;;;7.32;;
22922;SDS011;11627;51.322;22.816;2023-03-23T11:18:54;13.18;;;7.25;;
22922;SDS011;11627;51.322;22.816;2023-03-23T11:21:21;12.13;;;7.80;;
22922;SDS011;11627;51.322;22.816;2023-03-23T11:23:49;9.68;;;6.78;;
22922;SDS011;11627;51.322;22.816;2023-03-23T11:26:24;12.15;;;7.28;;
22922;SDS011;11627;51.322;22.816;2023-03-23T11:34:35;11.80;;;7.15;;
22922;SDS011;11627;51.322;22.816;2023-03-23T11:42:20;17.15;;;7.80;;
22922;SDS011;11627;51.322;22.816;2023-03-23T11:44:51;12.05;;;7.93;;
22922;SDS011;11627;51.322;22.816;2023-03-23T11:47:36;29.73;;;15.30;;
22922;SDS011;11627;51.322;22.816;2023-03-23T11:52:59;12.15;;;7.47;;
22922;SDS011;11627;51.322;22.816;2023-03-23T11:55:53;32.97;;;24.73;;
22922;SDS011;11627;51.322;22.816;2023-03-23T11:58:22;19.45;;;14.52;;
22922;SDS011;11627;51.322;22.816;2023-03-23T12:00:50;38.47;;;28.23;;
22922;SDS011;11627;51.322;22.816;2023-03-23T12:03:22;22.30;;;17.98;;
22922;SDS011;11627;51.322;22.816;2023-03-23T12:06:13;18.38;;;12.07;;
22922;SDS011;11627;51.322;22.816;2023-03-23T12:09:05;15.77;;;11.27;;
22922;SDS011;11627;51.322;22.816;2023-03-23T12:21:35;12.05;;;8.23;;
22922;SDS011;11627;51.322;22.816;2023-03-23T12:26:38;14.30;;;10.50;;
22922;SDS011;11627;51.322;22.816;2023-03-23T12:29:30;16.08;;;9.32;;
22922;SDS011;11627;51.322;22.816;2023-03-23T12:32:16;11.45;;;7.90;;
22922;SDS011;11627;51.322;22.816;2023-03-23T12:35:14;17.42;;;8.77;;
22922;SDS011;11627;51.322;22.816;2023-03-23T12:52:02;16.13;;;8.50;;
22922;SDS011;11627;51.322;22.816;2023-03-23T12:57:36;12.02;;;7.55;;
22922;SDS011;11627;51.322;22.816;2023-03-23T13:00:29;15.82;;;7.80;;
22922;SDS011;11627;51.322;22.816;2023-03-23T13:08:54;10.18;;;7.30;;
22922;SDS011;11627;51.322;22.816;2023-03-23T13:14:13;14.27;;;7.15;;
22922;SDS011;11627;51.322;22.816;2023-03-23T13:17:05;10.45;;;6.93;;
22922;SDS011;11627;51.322;22.816;2023-03-23T13:20:07;11.27;;;6.50;;
22922;SDS011;11627;51.322;22.816;2023-03-23T13:25:55;8.52;;;6.13;;
22922;SDS011;11627;51.322;22.816;2023-03-23T13:28:24;11.88;;;7.10;;
22922;SDS011;11627;51.322;22.816;2023-03-23T13:31:14;9.57;;;5.95;;
22922;SDS011;11627;51.322;22.816;2023-03-23T13:33:46;10.70;;;5.60;;
22922;SDS011;11627;51.322;22.816;2023-03-23T13:36:15;9.68;;;6.35;;
22922;SDS011;11627;51.322;22.816;2023-03-23T13:38:52;11.13;;;5.28;;
22922;SDS011;11627;51.322;22.816;2023-03-23T13:41:20;10.32;;;5.80;;
22922;SDS011;11627;51.322;22.816;2023-03-23T13:43:46;10.38;;;4.63;;
22922;SDS011;11627;51.322;22.816;2023-03-23T13:48:49;12.05;;;6.50;;
22922;SDS011;11627;51.322;22.816;2023-03-23T14:01:52;11.15;;;6.97;;
22922;SDS011;11627;51.322;22.816;2023-03-23T14:04:19;14.05;;;6.88;;
22922;SDS011;11627;51.322;22.816;2023-03-23T14:06:46;9.13;;;5.78;;
22922;SDS011;11627;51.322;22.816;2023-03-23T14:09:17;10.77;;;5.55;;
22922;SDS011;11627;51.322;22.816;2023-03-23T14:14:26;11.65;;;6.63;;
22922;SDS011;11627;51.322;22.816;2023-03-23T14:17:10;9.43;;;6.28;;
22922;SDS011;11627;51.322;22.816;2023-03-23T14:19:40;11.70;;;6.68;;
22922;SDS011;11627;51.322;22.816;2023-03-23T14:22:23;9.27;;;5.55;;
22922;SDS011;11627;51.322;22.816;2023-03-23T14:25:00;9.07;;;5.28;;
22922;SDS011;11627;51.322;22.816;2023-03-23T14:27:34;8.05;;;5.85;;
22922;SDS011;11627;51.322;22.816;2023-03-23T14:30:01;9.68;;;5.40;;
22922;SDS011;11627;51.322;22.816;2023-03-23T14:32:32;9.32;;;5.60;;
22922;SDS011;11627;51.322;22.816;2023-03-23T14:34:58;10.52;;;5.32;;
22922;SDS011;11627;51.322;22.816;2023-03-23T14:37:29;9.75;;;5.28;;
22922;SDS011;11627;51.322;22.816;2023-03-23T14:39:57;14.73;;;5.80;;
22922;SDS011;11627;51.322;22.816;2023-03-23T14:42:29;8.32;;;5.28;;
22922;SDS011;11627;51.322;22.816;2023-03-23T14:44:57;15.02;;;8.20;;
22922;SDS011;11627;51.322;22.816;2023-03-23T14:47:32;15.32;;;7.32;;
22922;SDS011;11627;51.322;22.816;2023-03-23T14:50:03;12.30;;;6.47;;
22922;SDS011;11627;51.322;22.816;2023-03-23T14:52:34;10.95;;;6.35;;
22922;SDS011;11627;51.322;22.816;2023-03-23T14:55:11;7.63;;;5.30;;
22922;SDS011;11627;51.322;22.816;2023-03-23T14:57:42;10.80;;;5.20;;
22922;SDS011;11627;51.322;22.816;2023-03-23T15:00:21;8.63;;;5.47;;
22922;SDS011;11627;51.322;22.816;2023-03-23T15:02:55;7.03;;;4.70;;
22922;SDS011;11627;51.322;22.816;2023-03-23T15:05:27;7.25;;;5.15;;
22922;SDS011;11627;51.322;22.816;2023-03-23T15:08:01;8.10;;;5.22;;
22922;SDS011;11627;51.322;22.816;2023-03-23T15:10:29;9.23;;;5.25;;
22922;SDS011;11627;51.322;22.816;2023-03-23T15:12:55;9.43;;;5.70;;
22922;SDS011;11627;51.322;22.816;2023-03-23T15:15:29;18.23;;;8.45;;
22922;SDS011;11627;51.322;22.816;2023-03-23T15:17:57;13.90;;;8.13;;
22922;SDS011;11627;51.322;22.816;2023-03-23T15:22:50;17.10;;;7.93;;
22922;SDS011;11627;51.322;22.816;2023-03-23T15:27:44;12.27;;;5.85;;
22922;SDS011;11627;51.322;22.816;2023-03-23T15:32:55;12.70;;;6.57;;
22922;SDS011;11627;51.322;22.816;2023-03-23T15:35:33;10.65;;;6.72;;
22922;SDS011;11627;51.322;22.816;2023-03-23T15:38:02;14.60;;;8.05;;
22922;SDS011;11627;51.322;22.816;2023-03-23T15:40:35;13.52;;;7.03;;
22922;SDS011;11627;51.322;22.816;2023-03-23T15:43:17;12.23;;;7.88;;
22922;SDS011;11627;51.322;22.816;2023-03-23T15:45:55;14.05;;;7.25;;
22922;SDS011;11627;51.322;22.816;2023-03-23T15:48:25;10.77;;;7.18;;
22922;SDS011;11627;51.322;22.816;2023-03-23T15:50:51;13.32;;;6.32;;
22922;SDS011;11627;51.322;22.816;2023-03-23T15:53:27;9.05;;;5.78;;
22922;SDS011;11627;51.322;22.816;2023-03-23T15:55:58;12.10;;;5.60;;
22922;SDS011;11627;51.322;22.816;2023-03-23T15:58:29;12.95;;;6.13;;
22922;SDS011;11627;51.322;22.816;2023-03-23T16:00:56;11.60;;;6.32;;
22922;SDS011;11627;51.322;22.816;2023-03-23T16:03:45;7.60;;;5.65;;
22922;SDS011;11627;51.322;22.816;2023-03-23T16:06:15;9.85;;;5.45;;
22922;SDS011;11627;51.322;22.816;2023-03-23T16:08:43;8.38;;;5.15;;
22922;SDS011;11627;51.322;22.816;2023-03-23T16:11:13;8.00;;;4.65;;
22922;SDS011;11627;51.322;22.816;2023-03-23T16:13:40;7.30;;;4.85;;
22922;SDS011;11627;51.322;22.816;2023-03-23T16:16:12;12.75;;;5.22;;
22922;SDS011;11627;51.322;22.816;2023-03-23T16:18:43;9.48;;;5.70;;
22922;SDS011;11627;51.322;22.816;2023-03-23T16:21:09;13.20;;;6.05;;
22922;SDS011;11627;51.322;22.816;2023-03-23T16:23:35;9.95;;;5.63;;
22922;SDS011;11627;51.322;22.816;2023-03-23T16:26:01;30.00;;;6.88;;
22922;SDS011;11627;51.322;22.816;2023-03-23T16:28:27;11.00;;;5.97;;
22922;SDS011;11627;51.322;22.816;2023-03-23T16:30:53;16.35;;;8.25;;
22922;SDS011;11627;51.322;22.816;2023-03-23T16:33:19;12.10;;;6.45;;
22922;SDS011;11627;51.322;22.816;2023-03-23T16:35:45;15.15;;;7.35;;
22922;SDS011;11627;51.322;22.816;2023-03-23T16:38:12;15.43;;;7.97;;
22922;SDS011;11627;51.322;22.816;2023-03-23T16:40:40;34.35;;;16.73;;
22922;SDS011;11627;51.322;22.816;2023-03-23T16:43:07;21.23;;;10.40;;
22922;SDS011;11627;51.322;22.816;2023-03-23T16:45:33;65.45;;;37.38;;
22922;SDS011;11627;51.322;22.816;2023-03-23T16:47:59;57.13;;;28.65;;
22922;SDS011;11627;51.322;22.816;2023-03-23T16:50:26;21.15;;;11.10;;
22922;SDS011;11627;51.322;22.816;2023-03-23T16:52:53;33.22;;;17.65;;
22922;SDS011;11627;51.322;22.816;2023-03-23T16:55:19;20.25;;;10.48;;
22922;SDS011;11627;51.322;22.816;2023-03-23T16:57:45;9.52;;;5.82;;
22922;SDS011;11627;51.322;22.816;2023-03-23T17:00:15;10.13;;;5.72;;